Time;durP1;ratioP1;P1;durP2;ratioP2;P2;SDS_P1;SDS_P2;PMS_P1;PMS_P2;Temp;Humidity;BMP_temperature;BMP_pressure;BME280_temperature;BME280_humidity;BME280_pressure;Samples;Min_cycle;Max_cycle;Signal;HPM_P1;HPM_P2
2021/03/12 00:01:11;;;;;;;13.98;4.90;;;;;;;12.16;59.23;101526.91;5010034;28;20598;-68
2021/03/12 00:03:39;;;;;;;19.73;5.22;;;;;;;12.21;59.05;101519.03;5009826;28;20073;-68
2021/03/12 00:06:08;;;;;;;16.65;6.22;;;;;;;12.30;59.13;101513.97;5009650;28;20145;-68
2021/03/12 00:08:37;;;;;;;13.50;5.07;;;;;;;12.26;59.26;101541.25;5009850;28;20117;-67
2021/03/12 00:11:05;;;;;;;14.38;6.18;;;;;;;12.27;59.72;101578.31;5010074;28;20046;-69
2021/03/12 00:13:32;;;;;;;15.63;5.63;;;;;;;12.31;59.86;101595.19;5010202;28;20121;-68
2021/03/12 00:16:01;;;;;;;13.98;5.57;;;;;;;12.35;60.13;101592.63;5009219;28;20502;-68
2021/03/12 00:18:34;;;;;;;17.20;5.80;;;;;;;12.41;60.09;101580.34;5009360;28;20745;-67
2021/03/12 00:21:02;;;;;;;17.00;5.65;;;;;;;12.40;59.88;101566.25;5009632;28;20422;-68
2021/03/12 00:23:29;;;;;;;17.20;6.10;;;;;;;12.33;60.13;101545.81;4992274;28;20037;-68
2021/03/12 00:25:56;;;;;;;20.92;5.40;;;;;;;12.27;60.17;101535.94;5008936;28;20125;-68
2021/03/12 00:28:23;;;;;;;19.67;7.13;;;;;;;12.26;60.27;101539.50;5009873;28;20124;-69
2021/03/12 00:30:51;;;;;;;18.27;5.85;;;;;;;12.25;60.02;101574.75;5009223;28;20045;-68
2021/03/12 00:33:20;;;;;;;13.15;5.28;;;;;;;12.28;59.93;101568.63;5009665;28;20108;-67
2021/03/12 00:35:47;;;;;;;19.98;5.32;;;;;;;12.25;59.98;101584.44;5009895;28;20034;-66
2021/03/12 00:38:15;;;;;;;16.60;5.53;;;;;;;12.29;59.85;101592.47;5010405;28;20038;-68
2021/03/12 00:40:44;;;;;;;12.13;4.82;;;;;;;12.32;59.56;101571.38;5009188;28;20498;-68
2021/03/12 00:43:11;;;;;;;12.70;6.05;;;;;;;12.30;59.11;101557.22;5009599;28;20030;-68
2021/03/12 00:45:40;;;;;;;15.75;5.43;;;;;;;12.31;58.85;101552.81;5010119;28;20048;-68
2021/03/12 00:48:08;;;;;;;15.63;5.00;;;;;;;12.32;59.09;101559.91;5009576;28;20124;-68
2021/03/12 00:50:39;;;;;;;17.20;6.47;;;;;;;12.32;59.50;101568.75;5009803;28;20467;-68
2021/03/12 00:53:08;;;;;;;11.88;4.97;;;;;;;12.31;59.83;101566.94;5009301;28;20045;-68
2021/03/12 00:55:35;;;;;;;14.32;5.63;;;;;;;12.25;59.67;101556.22;5010550;28;20121;-68
2021/03/12 00:58:03;;;;;;;11.85;5.53;;;;;;;12.21;59.50;101569.34;4995555;28;20040;-67
2021/03/12 01:00:32;;;;;;;9.98;4.28;;;;;;;12.20;59.61;101575.53;5007581;28;20144;-68
2021/03/12 01:02:59;;;;;;;15.45;6.03;;;;;;;12.16;59.83;101563.97;5012817;28;20054;-68
2021/03/12 01:05:27;;;;;;;14.25;3.80;;;;;;;12.10;59.00;101565.56;5013689;28;20069;-68
2021/03/12 01:07:56;;;;;;;15.50;5.57;;;;;;;12.09;59.17;101571.72;5013366;28;20046;-68
2021/03/12 01:10:24;;;;;;;14.02;5.10;;;;;;;12.06;59.32;101576.97;5012545;28;20196;-68
2021/03/12 01:12:52;;;;;;;12.57;4.38;;;;;;;12.00;59.55;101560.94;4995439;28;20044;-68
2021/03/12 01:15:22;;;;;;;15.80;5.93;;;;;;;11.95;59.16;101559.06;5013169;28;20045;-68
2021/03/12 01:17:49;;;;;;;13.23;4.28;;;;;;;11.90;58.88;101560.72;5012653;28;20042;-68
2021/03/12 01:20:18;;;;;;;14.40;4.55;;;;;;;11.87;58.80;101558.03;5013030;28;20453;-67
2021/03/12 01:22:45;;;;;;;14.73;4.72;;;;;;;11.79;58.90;101535.78;4995142;28;20046;-68
2021/03/12 01:25:17;;;;;;;12.60;4.28;;;;;;;11.78;58.42;101533.09;5013409;28;20450;-68
2021/03/12 01:27:44;;;;;;;13.20;3.85;;;;;;;11.75;58.32;101536.56;5012307;28;20133;-68
2021/03/12 01:30:16;;;;;;;12.43;5.50;;;;;;;11.69;58.40;101538.13;5013309;28;20048;-69
2021/03/12 01:32:43;;;;;;;12.75;4.63;;;;;;;11.66;58.61;101580.38;5012145;28;20461;-68
2021/03/12 01:35:11;;;;;;;11.30;4.28;;;;;;;11.69;58.83;101591.94;5013127;28;20041;-68
2021/03/12 01:37:38;;;;;;;15.57;5.78;;;;;;;11.73;59.16;101585.88;5012328;28;20121;-69
2021/03/12 01:40:07;;;;;;;17.63;4.78;;;;;;;11.77;59.02;101563.94;5012666;28;20046;-68
2021/03/12 01:42:35;;;;;;;18.40;5.30;;;;;;;11.76;59.23;101562.16;5012739;28;20092;-68
2021/03/12 01:45:05;;;;;;;16.88;5.30;;;;;;;11.72;59.43;101548.78;5011247;28;20533;-68
2021/03/12 01:47:32;;;;;;;14.13;5.07;;;;;;;11.67;59.75;101542.50;5012991;28;20036;-68
2021/03/12 01:49:59;;;;;;;18.92;6.05;;;;;;;11.64;60.18;101540.69;5012381;28;20588;-67
2021/03/12 01:52:26;;;;;;;19.83;7.00;;;;;;;11.67;60.65;101563.69;5012503;28;20050;-67
2021/03/12 01:54:53;;;;;;;17.67;5.65;;;;;;;11.68;60.84;101561.06;5011779;28;20075;-67
2021/03/12 01:57:21;;;;;;;16.45;4.65;;;;;;;11.64;60.98;101580.34;5011558;28;20057;-67
2021/03/12 01:59:49;;;;;;;13.07;5.05;;;;;;;11.64;60.86;101577.69;5012318;28;20132;-67
2021/03/12 02:02:16;;;;;;;15.88;4.90;;;;;;;11.65;60.63;101576.84;5011942;28;20042;-67
2021/03/12 02:04:43;;;;;;;18.40;5.80;;;;;;;11.61;60.69;101567.06;5011971;28;20137;-67
2021/03/12 02:07:11;;;;;;;13.38;4.75;;;;;;;11.56;60.58;101568.69;5011767;28;20124;-67
2021/03/12 02:09:38;;;;;;;8.88;3.85;;;;;;;11.54;60.16;101554.56;5012234;28;20122;-67
2021/03/12 02:12:10;;;;;;;13.25;4.57;;;;;;;11.56;59.77;101553.72;5011657;28;20100;-68
2021/03/12 02:14:48;;;;;;;16.85;5.22;;;;;;;11.54;59.92;101525.47;5011737;28;20581;-68
2021/03/12 02:17:20;;;;;;;26.70;4.78;;;;;;;11.48;60.11;101538.53;5011297;28;20038;-67
2021/03/12 02:20:08;;;;;;;14.93;5.00;;;;;;;11.49;59.47;101582.59;5011631;28;20163;-68
2021/03/12 02:22:37;;;;;;;14.05;4.30;;;;;;;11.48;59.69;101604.63;5012213;28;20502;-68
2021/03/12 02:25:08;;;;;;;9.75;3.65;;;;;;;11.47;59.56;101611.69;5011186;28;20438;-69
2021/03/12 02:27:37;;;;;;;16.42;4.10;;;;;;;11.49;59.73;101596.72;5012134;28;20428;-69
2021/03/12 02:30:07;;;;;;;19.48;5.60;;;;;;;11.51;59.89;101575.63;4993693;28;20125;-69
2021/03/12 02:32:36;;;;;;;15.98;4.32;;;;;;;11.49;60.14;101550.88;5012373;28;20041;-66
2021/03/12 02:35:07;;;;;;;13.70;4.55;;;;;;;11.45;60.17;101535.81;5011532;28;20681;-67
2021/03/12 02:37:34;;;;;;;12.52;5.00;;;;;;;11.42;60.56;101543.69;5011617;28;20137;-67
2021/03/12 02:40:03;;;;;;;15.65;6.28;;;;;;;11.38;60.83;101544.44;5010965;28;20045;-67
2021/03/12 02:42:30;;;;;;;18.55;5.13;;;;;;;11.34;60.60;101553.16;4994309;28;20104;-67
2021/03/12 02:45:01;;;;;;;15.13;6.18;;;;;;;11.35;60.80;101541.75;5010831;28;20125;-68
2021/03/12 02:47:31;;;;;;;11.40;5.82;;;;;;;11.32;60.80;101541.66;5010464;28;20068;-67
2021/03/12 02:49:58;;;;;;;14.30;4.90;;;;;;;11.31;60.71;101537.22;5009684;28;20116;-69
2021/03/12 02:52:27;;;;;;;19.50;6.13;;;;;;;11.31;60.75;101539.84;5011855;28;20053;-67
2021/03/12 02:54:55;;;;;;;16.27;5.72;;;;;;;11.30;60.99;101567.13;5010934;28;20037;-68
2021/03/12 02:57:23;;;;;;;17.08;7.03;;;;;;;11.30;61.29;101559.22;5011629;28;20629;-67
2021/03/12 02:59:53;;;;;;;11.63;5.20;;;;;;;11.30;61.30;101552.19;5010617;28;20569;-67
2021/03/12 03:02:24;;;;;;;14.55;5.10;;;;;;;11.30;61.43;101543.34;5011247;28;20053;-68
2021/03/12 03:04:52;;;;;;;15.68;4.63;;;;;;;11.27;60.85;101535.38;5010732;28;20586;-67
2021/03/12 03:07:20;;;;;;;15.85;5.18;;;;;;;11.25;60.72;101534.41;5011346;28;20145;-68
2021/03/12 03:09:49;;;;;;;10.55;4.47;;;;;;;11.21;60.75;101529.91;5010792;28;20050;-68
2021/03/12 03:12:18;;;;;;;12.07;6.03;;;;;;;11.21;60.64;101559.88;5011022;28;20044;-67
2021/03/12 03:14:48;;;;;;;11.88;3.83;;;;;;;11.21;60.75;101581.03;5010315;28;20042;-67
2021/03/12 03:17:18;;;;;;;15.88;4.40;;;;;;;11.27;60.67;101589.13;5010503;28;20034;-67
2021/03/12 03:19:49;;;;;;;15.18;4.47;;;;;;;11.28;60.79;101590.00;5009822;28;20473;-67
2021/03/12 03:22:18;;;;;;;19.50;6.00;;;;;;;11.27;60.97;101582.94;5011061;28;20057;-67
2021/03/12 03:24:45;;;;;;;17.27;4.97;;;;;;;11.26;60.61;101573.22;5009663;28;20059;-68
2021/03/12 03:27:12;;;;;;;12.85;3.92;;;;;;;11.25;60.81;101588.16;5010988;28;20026;-68
2021/03/12 03:29:39;;;;;;;16.17;4.35;;;;;;;11.22;61.20;101592.50;5010991;28;20037;-67
2021/03/12 03:32:08;;;;;;;11.35;4.97;;;;;;;11.21;60.96;101581.03;5010215;28;20048;-68
2021/03/12 03:34:35;;;;;;;17.83;4.68;;;;;;;11.24;60.21;101596.06;5007003;28;20034;-67
2021/03/12 03:37:04;;;;;;;14.10;4.85;;;;;;;11.29;60.72;101605.03;5010301;28;20052;-67
2021/03/12 03:39:31;;;;;;;17.23;6.72;;;;;;;11.25;60.82;101609.31;5010451;28;20038;-68
2021/03/12 03:42:02;;;;;;;21.27;5.10;;;;;;;11.24;60.97;101599.59;5009778;28;20037;-68
2021/03/12 03:44:33;;;;;;;13.93;4.68;;;;;;;11.16;60.99;101588.81;5010622;28;20113;-68
2021/03/12 03:47:02;;;;;;;11.30;4.20;;;;;;;11.17;60.71;101595.00;5010064;28;20045;-68
2021/03/12 03:49:31;;;;;;;10.70;4.57;;;;;;;11.24;60.47;101614.56;5010442;28;20046;-68
2021/03/12 03:51:59;;;;;;;13.43;4.63;;;;;;;11.26;60.70;101626.06;5009501;28;20046;-68
2021/03/12 03:54:27;;;;;;;11.80;4.38;;;;;;;11.24;61.26;101640.97;5010265;28;20364;-68
2021/03/12 03:56:55;;;;;;;10.57;4.10;;;;;;;11.19;61.24;101619.72;5010066;28;20395;-68
2021/03/12 03:59:23;;;;;;;8.85;4.00;;;;;;;11.23;60.94;101624.22;5009742;28;20042;-68
2021/03/12 04:01:50;;;;;;;11.20;3.97;;;;;;;11.27;59.84;101607.63;5009817;28;20048;-68
2021/03/12 04:04:17;;;;;;;11.50;4.60;;;;;;;11.30;59.47;101606.78;5009848;28;20045;-68
2021/03/12 04:06:46;;;;;;;15.45;5.00;;;;;;;11.30;59.65;101612.97;4992893;28;20045;-67
2021/03/12 04:09:15;;;;;;;14.50;3.92;;;;;;;11.32;59.66;101639.44;5009928;28;20038;-68
2021/03/12 04:11:44;;;;;;;17.88;5.60;;;;;;;11.37;59.68;101645.75;5009262;28;20532;-68
2021/03/12 04:14:11;;;;;;;13.18;5.50;;;;;;;11.38;59.67;101636.97;5010418;28;20044;-68
2021/03/12 04:16:39;;;;;;;16.05;5.15;;;;;;;11.37;59.34;101643.09;5009961;28;20042;-68
2021/03/12 04:19:08;;;;;;;12.10;4.50;;;;;;;11.38;59.27;101648.44;5009566;28;20048;-68
2021/03/12 04:21:36;;;;;;;11.90;6.28;;;;;;;11.36;59.64;101644.84;5010145;28;20046;-68
2021/03/12 04:24:04;;;;;;;15.02;5.20;;;;;;;11.29;59.42;101665.81;5009248;28;20117;-66
2021/03/12 04:26:32;;;;;;;17.02;4.72;;;;;;;11.27;58.54;101628.75;5010440;28;20052;-69
2021/03/12 04:29:01;;;;;;;10.38;3.58;;;;;;;11.30;58.39;101609.44;5009089;28;20038;-68
2021/03/12 04:31:28;;;;;;;11.00;3.95;;;;;;;11.26;58.26;101604.94;5010045;28;20041;-68
2021/03/12 04:33:55;;;;;;;12.60;4.55;;;;;;;11.22;58.23;101630.41;5009690;28;20042;-68
2021/03/12 04:36:22;;;;;;;9.30;3.72;;;;;;;11.22;58.39;101629.50;5009216;28;20041;-68
2021/03/12 04:38:50;;;;;;;15.60;5.05;;;;;;;11.20;58.53;101600.38;5009076;28;20052;-68
2021/03/12 04:41:18;;;;;;;13.40;5.22;;;;;;;11.19;58.83;101604.78;5009826;28;20136;-68
2021/03/12 04:43:46;;;;;;;11.23;4.30;;;;;;;11.19;59.11;101609.16;5008998;28;20048;-69
2021/03/12 04:46:15;;;;;;;11.85;3.65;;;;;;;11.25;59.05;101640.13;4993328;28;20125;-68
2021/03/12 04:48:42;;;;;;;13.80;4.68;;;;;;;11.28;59.29;101627.03;5009493;28;20100;-67
2021/03/12 04:51:11;;;;;;;11.25;4.43;;;;;;;11.26;59.19;101612.84;5009544;28;20513;-68
2021/03/12 04:53:39;;;;;;;13.57;5.43;;;;;;;11.29;58.79;101616.47;4991928;28;20089;-68
2021/03/12 04:56:07;;;;;;;13.82;3.80;;;;;;;11.29;58.73;101626.16;5009024;28;20038;-68
2021/03/12 04:58:36;;;;;;;11.15;4.80;;;;;;;11.32;58.19;101634.16;5010178;28;20062;-69
2021/03/12 05:01:07;;;;;;;7.85;3.35;;;;;;;11.38;58.23;101631.69;5008390;28;20052;-68
2021/03/12 05:03:37;;;;;;;9.88;3.85;;;;;;;11.40;58.24;101644.09;5009345;28;20046;-68
2021/03/12 05:06:05;;;;;;;11.18;4.03;;;;;;;11.38;58.46;101652.81;5009199;28;20113;-68
2021/03/12 05:08:34;;;;;;;11.02;4.05;;;;;;;11.38;58.43;101650.19;5009028;28;20057;-68
2021/03/12 05:11:02;;;;;;;5.20;2.97;;;;;;;11.38;57.76;101622.00;5008578;28;20053;-68
2021/03/12 05:13:29;;;;;;;10.07;3.38;;;;;;;11.37;57.74;101658.97;5009840;28;20137;-68
2021/03/12 05:15:56;;;;;;;10.27;3.25;;;;;;;11.36;57.02;101679.22;5008811;28;20053;-69
2021/03/12 05:18:23;;;;;;;7.65;3.50;;;;;;;11.41;56.78;101692.59;5009462;28;20041;-68
2021/03/12 05:20:52;;;;;;;17.02;5.10;;;;;;;11.47;56.43;101684.81;5008629;28;20156;-68
2021/03/12 05:23:21;;;;;;;14.05;4.28;;;;;;;11.57;56.14;101671.84;5009158;28;20042;-68
2021/03/12 05:25:48;;;;;;;10.85;3.72;;;;;;;11.63;56.01;101664.94;5008877;28;20046;-68
2021/03/12 05:28:15;;;;;;;10.18;4.60;;;;;;;11.75;56.83;101665.31;4990353;28;20061;-68
2021/03/12 05:30:43;;;;;;;11.90;3.63;;;;;;;11.78;57.20;101666.25;5002642;28;20042;-68
2021/03/12 05:33:10;;;;;;;11.23;3.22;;;;;;;11.78;57.33;101668.00;5009468;28;20046;-68
2021/03/12 05:35:37;;;;;;;10.60;3.45;;;;;;;11.82;57.18;101685.75;5009615;28;20066;-68
2021/03/12 05:38:05;;;;;;;13.52;4.90;;;;;;;11.96;57.25;101694.91;5008442;28;20046;-68
2021/03/12 05:40:33;;;;;;;17.02;8.52;;;;;;;12.03;57.30;101695.97;5008978;28;20046;-68
2021/03/12 05:43:02;;;;;;;8.18;3.67;;;;;;;12.25;56.88;101701.84;5011777;28;20122;-68
2021/03/12 05:45:29;;;;;;;9.43;3.75;;;;;;;12.55;56.26;101688.38;5012791;28;20073;-69
2021/03/12 05:47:57;;;;;;;6.95;3.78;;;;;;;12.61;55.43;101675.28;5012615;28;20034;-68
2021/03/12 05:50:24;;;;;;;10.43;3.67;;;;;;;12.52;55.66;101674.19;5012216;28;20038;-68
2021/03/12 05:52:51;;;;;;;14.00;3.33;;;;;;;12.47;55.73;101681.16;5011636;28;20129;-68
2021/03/12 05:55:20;;;;;;;9.13;3.10;;;;;;;12.47;55.80;101675.84;4994534;28;20048;-68
2021/03/12 05:57:47;;;;;;;8.02;2.83;;;;;;;12.39;55.91;101686.28;5012127;28;20034;-67
2021/03/12 06:00:16;;;;;;;9.38;3.50;;;;;;;12.40;55.98;101696.00;5011957;28;20515;-68
2021/03/12 06:02:43;;;;;;;13.23;4.15;;;;;;;12.51;56.18;101705.09;5012072;28;20053;-68
2021/03/12 06:05:11;;;;;;;11.43;4.75;;;;;;;12.66;56.23;101692.19;5012637;28;20121;-69
2021/03/12 06:07:39;;;;;;;10.30;3.85;;;;;;;12.75;55.93;101657.94;5012042;28;20041;-68
2021/03/12 06:10:10;;;;;;;10.52;4.60;;;;;;;12.81;55.33;101669.50;5011241;28;20141;-68
2021/03/12 06:12:39;;;;;;;13.20;3.75;;;;;;;12.83;55.22;101684.59;5014756;28;20034;-69
2021/03/12 06:15:07;;;;;;;11.23;5.45;;;;;;;12.91;55.43;101705.97;5024178;28;20169;-68
2021/03/12 06:17:36;;;;;;;11.98;5.60;;;;;;;12.96;55.03;101699.00;5012711;28;20439;-68
2021/03/12 06:20:06;;;;;;;12.70;5.43;;;;;;;12.99;55.04;101699.06;5013305;28;20125;-68
2021/03/12 06:22:34;;;;;;;10.15;4.13;;;;;;;13.03;54.71;101711.50;5023429;28;20135;-68
2021/03/12 06:25:17;;;;;;;10.50;4.55;;;;;;;13.14;54.13;101695.00;5013294;28;20097;-68
2021/03/12 06:27:47;;;;;;;12.43;5.07;;;;;;;13.17;54.40;101707.44;4999344;28;20453;-68
2021/03/12 06:30:16;;;;;;;7.80;4.70;;;;;;;13.16;54.56;101689.72;5032010;28;20049;-68
2021/03/12 06:32:46;;;;;;;8.77;4.90;;;;;;;13.16;55.21;101693.28;5026691;28;20042;-68
2021/03/12 06:35:15;;;;;;;11.10;4.68;;;;;;;13.23;55.79;101699.59;5011799;28;20496;-68
2021/03/12 06:37:45;;;;;;;9.00;4.63;;;;;;;13.22;56.37;101719.00;5020463;28;20525;-68
2021/03/12 06:40:18;;;;;;;14.07;4.45;;;;;;;13.18;56.51;101730.44;5030014;28;20037;-68
2021/03/12 06:43:08;;;;;;;9.82;4.10;;;;;;;13.23;56.44;101754.38;5014759;28;20049;-67
2021/03/12 06:45:53;;;;;;;18.38;8.45;;;;;;;13.26;56.48;101731.47;5019677;28;20038;-68
2021/03/12 06:48:22;;;;;;;11.98;5.35;;;;;;;13.29;56.75;101720.03;5024427;28;20402;-69
2021/03/12 06:50:51;;;;;;;11.68;6.80;;;;;;;13.36;56.85;101713.97;5011040;28;20040;-68
2021/03/12 06:53:22;;;;;;;12.27;6.10;;;;;;;13.43;56.95;101718.53;5001169;28;20081;-67
2021/03/12 06:55:49;;;;;;;12.38;6.53;;;;;;;13.56;56.81;101721.47;5005425;28;20044;-67
2021/03/12 06:58:17;;;;;;;13.20;4.53;;;;;;;13.63;56.54;101740.16;5007471;28;20125;-69
2021/03/12 07:00:45;;;;;;;11.30;5.15;;;;;;;13.59;56.50;101751.59;5018012;28;20111;-68
2021/03/12 07:03:29;;;;;;;14.50;6.88;;;;;;;13.66;56.16;101772.03;5020613;28;20120;-68
2021/03/12 07:06:12;;;;;;;10.35;3.22;;;;;;;13.69;55.74;101773.00;5010068;28;20041;-69
2021/03/12 07:08:41;;;;;;;14.25;6.75;;;;;;;13.77;54.95;101765.19;5011692;28;20045;-68
2021/03/12 07:11:20;;;;;;;11.90;3.88;;;;;;;13.95;54.28;101757.56;5011289;28;20042;-68
2021/03/12 07:13:49;;;;;;;9.88;4.28;;;;;;;14.07;54.25;101764.84;5010611;28;20050;-67
2021/03/12 07:16:16;;;;;;;12.52;4.88;;;;;;;14.01;54.28;101757.66;5011031;28;20046;-68
2021/03/12 07:18:43;;;;;;;10.00;3.72;;;;;;;13.98;53.75;101778.81;5011220;28;20073;-68
2021/03/12 07:21:11;;;;;;;13.95;3.92;;;;;;;14.11;53.62;101788.81;5011202;28;20034;-68
2021/03/12 07:23:41;;;;;;;12.57;4.28;;;;;;;14.22;53.16;101797.88;5010591;28;20049;-68
2021/03/12 07:26:11;;;;;;;9.98;3.63;;;;;;;14.26;53.00;101806.78;5014236;28;20106;-68
2021/03/12 07:28:41;;;;;;;9.70;3.53;;;;;;;14.43;53.04;101813.31;4996287;28;20041;-69
2021/03/12 07:31:11;;;;;;;10.75;3.95;;;;;;;14.79;52.38;101804.13;5009996;28;20034;-68
2021/03/12 07:33:40;;;;;;;10.35;3.65;;;;;;;14.85;52.13;101789.16;5011238;28;20041;-68
2021/03/12 07:36:10;;;;;;;9.48;3.30;;;;;;;14.87;51.69;101808.69;5010670;28;20046;-69
2021/03/12 07:38:40;;;;;;;10.02;3.17;;;;;;;14.85;51.96;101820.16;5010497;28;20225;-68
2021/03/12 07:41:07;;;;;;;9.68;4.57;;;;;;;14.71;51.46;101825.25;4991143;28;20038;-69
2021/03/12 07:43:36;;;;;;;8.88;2.88;;;;;;;14.65;51.73;101820.75;5002350;28;20034;-69
2021/03/12 07:46:05;;;;;;;6.45;2.47;;;;;;;14.85;51.20;101810.44;5002029;28;20050;-68
2021/03/12 07:48:35;;;;;;;6.07;2.28;;;;;;;15.38;50.43;101811.16;5007525;28;20113;-68
2021/03/12 07:51:09;;;;;;;7.55;2.85;;;;;;;15.81;49.56;101817.94;5009902;28;20129;-68
2021/03/12 07:53:53;;;;;;;5.57;2.30;;;;;;;16.30;48.57;101815.75;5017854;28;20045;-69
2021/03/12 07:56:55;;;;;;;6.30;2.88;;;;;;;16.70;47.92;101811.69;5014238;28;20034;-68
2021/03/12 07:59:22;;;;;;;6.65;2.20;;;;;;;16.66;47.47;101810.78;5005529;28;20049;-69
2021/03/12 08:01:55;;;;;;;5.38;2.20;;;;;;;16.60;47.46;101842.75;5015288;28;20069;-70
2021/03/12 08:04:31;;;;;;;11.73;2.30;;;;;;;17.13;46.96;101827.09;5004066;28;20061;-69
2021/03/12 08:06:59;;;;;;;7.28;2.08;;;;;;;16.93;46.40;101817.19;5013325;28;20068;-69
2021/03/12 08:09:35;;;;;;;6.75;2.90;;;;;;;16.96;46.81;101822.53;5010592;28;20471;-69
2021/03/12 08:12:02;;;;;;;7.63;2.45;;;;;;;17.18;46.50;101832.47;5009930;28;20046;-68
2021/03/12 08:14:30;;;;;;;4.28;2.38;;;;;;;17.38;46.89;101836.13;5009827;28;20117;-68
2021/03/12 08:17:18;;;;;;;5.03;2.45;;;;;;;17.70;46.04;101828.28;5009944;28;20045;-68
2021/03/12 08:19:49;;;;;;;5.05;2.45;;;;;;;17.90;45.78;101837.28;5021789;28;20124;-69
2021/03/12 08:22:44;;;;;;;10.00;3.63;;;;;;;18.20;44.49;101825.72;5016134;28;20442;-69
2021/03/12 08:25:13;;;;;;;7.22;2.75;;;;;;;18.49;44.54;101819.53;4997276;28;20037;-68
2021/03/12 08:27:45;;;;;;;7.57;3.33;;;;;;;18.51;44.16;101815.94;5005028;28;20044;-69
2021/03/12 08:30:43;;;;;;;6.50;2.38;;;;;;;18.61;43.33;101801.72;5003566;28;20046;-69
2021/03/12 08:33:26;;;;;;;6.57;2.67;;;;;;;18.59;42.48;101810.63;4991714;28;20049;-69
2021/03/12 08:35:56;;;;;;;8.02;3.33;;;;;;;18.01;42.14;101815.00;4988168;28;20038;-69
2021/03/12 08:38:42;;;;;;;9.00;2.58;;;;;;;17.86;42.70;101807.84;4989964;28;20042;-68
2021/03/12 08:41:13;;;;;;;7.43;2.03;;;;;;;17.82;43.01;101800.72;4988071;28;20044;-69
2021/03/12 08:43:47;;;;;;;5.93;1.88;;;;;;;17.97;42.62;101811.47;4993820;28;20117;-69
2021/03/12 08:46:17;;;;;;;4.20;1.95;;;;;;;18.14;42.14;101815.03;4995556;28;20036;-69
2021/03/12 08:48:48;;;;;;;5.68;2.08;;;;;;;18.35;42.11;101821.28;4993925;28;20149;-69
2021/03/12 08:51:18;;;;;;;4.53;2.20;;;;;;;18.74;42.10;101805.28;4993648;28;20046;-69
2021/03/12 08:53:53;;;;;;;4.30;2.33;;;;;;;18.95;41.07;101801.69;4994934;28;20173;-69
2021/03/12 08:56:23;;;;;;;3.85;2.10;;;;;;;18.92;41.09;101812.38;4996582;28;20511;-68
2021/03/12 08:58:50;;;;;;;5.78;1.95;;;;;;;18.85;40.72;101806.13;4998900;28;20070;-69
2021/03/12 09:01:19;;;;;;;6.82;2.55;;;;;;;18.82;40.59;101800.81;4995868;28;20054;-69
2021/03/12 09:03:50;;;;;;;4.80;2.00;;;;;;;18.77;39.87;101804.38;5000124;28;20070;-69
2021/03/12 09:06:20;;;;;;;4.85;2.00;;;;;;;18.92;40.23;101781.16;4994139;28;20484;-69
2021/03/12 09:08:48;;;;;;;6.75;2.75;;;;;;;19.09;40.01;101774.00;4996035;28;20038;-69
2021/03/12 09:11:18;;;;;;;5.13;2.45;;;;;;;19.03;39.92;101794.53;4991554;28;20090;-69
2021/03/12 09:13:46;;;;;;;5.00;2.08;;;;;;;19.18;39.98;101796.25;4992910;28;20038;-69
2021/03/12 09:16:19;;;;;;;3.92;1.83;;;;;;;19.29;40.05;101814.09;5009792;28;20073;-69
2021/03/12 09:18:46;;;;;;;3.17;1.85;;;;;;;19.50;39.98;101800.63;5015663;28;20076;-69
2021/03/12 09:21:17;;;;;;;6.65;2.30;;;;;;;19.53;39.60;101801.50;4996024;28;20120;-70
2021/03/12 09:23:48;;;;;;;5.32;2.35;;;;;;;19.11;39.68;101793.59;5016512;28;20045;-68
2021/03/12 09:26:17;;;;;;;8.57;2.60;;;;;;;19.07;39.91;101785.59;5014373;28;20065;-69
2021/03/12 09:28:45;;;;;;;10.45;3.70;;;;;;;18.87;39.81;101782.97;5014174;28;20084;-70
2021/03/12 09:31:15;;;;;;;6.70;3.40;;;;;;;18.92;40.14;101775.81;5014201;28;20042;-69
2021/03/12 09:33:43;;;;;;;5.10;1.77;;;;;;;18.71;40.03;101787.44;5006555;28;20133;-70
2021/03/12 09:36:25;;;;;;;5.03;2.90;;;;;;;18.84;39.50;101782.94;5013446;28;20037;-69
2021/03/12 09:38:55;;;;;;;6.82;3.38;;;;;;;19.19;39.66;101781.97;5012145;28;20125;-68
2021/03/12 09:41:23;;;;;;;7.82;2.60;;;;;;;19.60;39.43;101766.66;5014222;28;20060;-69
2021/03/12 09:44:02;;;;;;;7.68;2.65;;;;;;;19.96;39.08;101780.72;5017676;28;20037;-69
2021/03/12 09:46:31;;;;;;;4.55;2.28;;;;;;;20.09;38.90;101787.78;5017661;28;20181;-69
2021/03/12 09:48:59;;;;;;;9.02;3.97;;;;;;;20.26;38.97;101780.50;5014619;28;20146;-70
2021/03/12 09:51:30;;;;;;;4.97;2.20;;;;;;;20.11;38.97;101792.22;5016876;28;20042;-70
2021/03/12 09:53:59;;;;;;;9.80;3.13;;;;;;;20.07;38.75;101784.22;5021051;28;20042;-70
2021/03/12 09:56:27;;;;;;;6.05;2.67;;;;;;;19.89;39.00;101786.13;4996934;28;20056;-70
2021/03/12 09:58:54;;;;;;;7.05;3.13;;;;;;;19.90;39.07;101787.00;5015712;28;20038;-71
2021/03/12 10:01:21;;;;;;;9.48;3.78;;;;;;;20.06;38.92;101785.13;5012814;28;20121;-71
2021/03/12 10:03:48;;;;;;;7.55;3.10;;;;;;;20.32;39.23;101775.09;5015369;28;20045;-72
2021/03/12 10:06:15;;;;;;;3.70;2.38;;;;;;;20.26;39.09;101786.75;5021485;28;20044;-72
2021/03/12 10:09:06;;;;;;;5.82;2.00;;;;;;;19.94;38.18;101775.38;5020407;28;20041;-71
2021/03/12 10:11:44;;;;;;;6.75;2.05;;;;;;;19.37;39.50;101764.03;5017995;28;20034;-71
2021/03/12 10:14:29;;;;;;;5.93;2.45;;;;;;;19.67;39.75;101756.78;5012749;28;20721;-68
2021/03/12 10:17:20;;;;;;;7.95;2.75;;;;;;;20.12;39.40;101758.28;5016115;28;20048;-72
2021/03/12 10:19:56;;;;;;;7.82;2.42;;;;;;;19.90;38.71;101741.44;5010133;28;20034;-72
2021/03/12 10:22:28;;;;;;;6.60;2.40;;;;;;;19.45;39.04;101743.47;5027876;28;20582;-72
2021/03/12 10:25:09;;;;;;;7.07;2.45;;;;;;;19.52;39.19;101747.03;5013261;28;20078;-72
2021/03/12 10:27:37;;;;;;;6.72;2.63;;;;;;;19.70;39.04;101751.41;5005452;28;20040;-72
2021/03/12 10:30:10;;;;;;;4.43;2.33;;;;;;;19.67;39.15;101759.47;5013347;28;20038;-71
2021/03/12 10:32:42;;;;;;;4.85;2.50;;;;;;;19.44;39.50;101748.84;5010484;28;20041;-72
2021/03/12 10:35:23;;;;;;;6.45;2.60;;;;;;;19.62;39.53;101737.19;5001362;28;20046;-72
2021/03/12 10:37:52;;;;;;;8.98;3.90;;;;;;;19.77;39.56;101745.09;4994686;28;20042;-72
2021/03/12 10:40:22;;;;;;;7.53;2.88;;;;;;;19.75;39.79;101730.84;5012020;28;20052;-72
2021/03/12 10:42:49;;;;;;;5.63;2.60;;;;;;;19.98;39.76;101734.25;5014999;28;20045;-72
2021/03/12 10:45:29;;;;;;;6.07;2.60;;;;;;;20.07;39.21;101731.50;5012843;28;20044;-72
2021/03/12 10:48:01;;;;;;;10.88;3.55;;;;;;;19.87;39.62;101720.94;5013466;28;20125;-73
2021/03/12 10:50:31;;;;;;;7.57;3.33;;;;;;;19.75;39.17;101730.84;5010339;28;20049;-72
2021/03/12 10:53:13;;;;;;;7.35;2.92;;;;;;;19.81;39.01;101712.94;5007620;28;20033;-72
2021/03/12 10:55:44;;;;;;;5.00;2.75;;;;;;;19.97;39.13;101716.38;5012282;28;20117;-72
2021/03/12 10:58:26;;;;;;;7.75;2.20;;;;;;;20.16;38.88;101704.59;5010330;28;20052;-71
2021/03/12 11:01:11;;;;;;;5.75;2.17;;;;;;;20.14;38.73;101697.50;4998156;28;20042;-73
2021/03/12 11:03:39;;;;;;;5.10;2.22;;;;;;;19.83;38.87;101702.19;5022337;28;20159;-72
2021/03/12 11:06:07;;;;;;;6.57;2.80;;;;;;;19.62;39.48;101707.72;5019944;28;20049;-72
2021/03/12 11:08:35;;;;;;;11.15;3.78;;;;;;;19.63;39.98;101718.41;5010596;28;20703;-73
2021/03/12 11:11:05;;;;;;;30.20;16.00;;;;;;;19.47;39.81;101712.25;5009778;28;20050;-72
2021/03/12 11:13:32;;;;;;;6.30;2.60;;;;;;;19.49;39.62;101704.22;5012678;28;20045;-72
2021/03/12 11:16:00;;;;;;;7.88;2.60;;;;;;;19.72;39.57;101690.66;5010461;28;20077;-72
2021/03/12 11:18:29;;;;;;;9.75;3.97;;;;;;;19.85;39.84;101695.91;5008494;28;20040;-72
2021/03/12 11:20:56;;;;;;;7.45;3.40;;;;;;;20.04;39.71;101691.31;5004900;28;20129;-71
2021/03/12 11:23:23;;;;;;;7.85;3.55;;;;;;;20.02;39.50;101703.81;5003288;28;20034;-71
2021/03/12 11:25:50;;;;;;;5.30;2.85;;;;;;;19.77;39.22;101689.72;5005387;28;20052;-72
2021/03/12 11:28:18;;;;;;;11.25;4.50;;;;;;;19.56;39.41;101692.53;5007870;28;20491;-71
2021/03/12 11:30:46;;;;;;;9.48;3.88;;;;;;;19.61;39.65;101697.88;5003825;28;20038;-72
2021/03/12 11:33:13;;;;;;;13.45;3.35;;;;;;;19.83;39.11;101695.03;5007344;28;20038;-71